createdAt,value
2019-05-13T00:01:47.803Z,65.50
2019-05-13T00:04:53.217Z,65.50
2019-05-13T00:07:57.683Z,65.30
2019-05-13T00:11:04.221Z,66.50
2019-05-13T00:14:08.061Z,66.20
2019-05-13T00:17:14.615Z,66.80
2019-05-13T00:20:18.444Z,66.60
2019-05-13T00:23:23.437Z,66.70
2019-05-13T00:26:27.812Z,66.50
2019-05-13T00:29:34.040Z,67.60
2019-05-13T00:32:37.965Z,67.70
2019-05-13T00:35:44.332Z,67.50
2019-05-13T00:38:48.267Z,67.70
2019-05-13T00:41:53.170Z,68.00
2019-05-13T00:44:57.561Z,68.00
2019-05-13T00:48:04.199Z,68.10
2019-05-13T00:51:07.902Z,69.30
2019-05-13T00:54:13.331Z,68.30
2019-05-13T00:57:17.805Z,69.50
2019-05-13T01:00:24.177Z,69.80
2019-05-13T01:03:28.467Z,69.40
2019-05-13T01:06:34.130Z,69.60
2019-05-13T01:09:38.699Z,69.40
2019-05-13T01:12:44.130Z,68.80
2019-05-13T01:15:48.598Z,69.10
2019-05-13T01:18:54.620Z,68.90
2019-05-13T01:21:58.928Z,69.00
2019-05-13T01:25:04.008Z,69.30
2019-05-13T01:28:08.726Z,69.20
2019-05-13T01:31:13.330Z,69.30
2019-05-13T01:34:17.599Z,69.20
2019-05-13T01:37:24.784Z,69.10
2019-05-13T01:40:27.915Z,69.50
2019-05-13T01:43:33.537Z,69.50
2019-05-13T01:46:37.906Z,70.00
2019-05-13T01:49:43.946Z,69.20
2019-05-13T01:52:48.255Z,69.60
2019-05-13T01:55:53.262Z,69.80
2019-05-13T01:58:57.819Z,69.80
2019-05-13T02:02:03.521Z,70.30
2019-05-13T02:05:08.392Z,69.80
2019-05-13T02:08:14.336Z,70.00
2019-05-13T02:11:18.968Z,70.10
2019-05-13T02:14:23.653Z,69.70
2019-05-13T02:17:28.034Z,69.90
2019-05-13T02:20:33.501Z,70.10
2019-05-13T02:23:37.920Z,70.40
2019-05-13T02:26:43.686Z,70.50
2019-05-13T02:29:48.191Z,70.40
2019-05-13T02:32:53.086Z,70.50
2019-05-13T02:35:57.634Z,71.00
2019-05-13T02:39:02.638Z,70.40
2019-05-13T02:42:07.613Z,70.40
2019-05-13T02:45:12.568Z,70.10
2019-05-13T02:48:16.948Z,70.10
2019-05-13T02:51:23.058Z,69.80
2019-05-13T02:54:27.145Z,70.10
2019-05-13T02:57:32.804Z,69.70
2019-05-13T03:00:37.295Z,70.20
2019-05-13T03:03:44.434Z,69.60
2019-05-13T03:06:47.735Z,69.00
2019-05-13T03:09:52.845Z,68.90
2019-05-13T03:12:57.169Z,69.00
2019-05-13T03:16:08.829Z,70.00
2019-05-13T03:19:13.679Z,69.00
2019-05-13T03:22:18.359Z,68.60
2019-05-13T03:25:23.066Z,69.70
2019-05-13T03:28:27.556Z,68.90
2019-05-13T03:31:36.114Z,69.60
2019-05-13T03:34:37.727Z,69.30
2019-05-13T03:37:42.653Z,68.80
2019-05-13T03:40:48.318Z,69.40
2019-05-13T03:43:55.544Z,69.50
2019-05-13T03:47:03.426Z,68.20
2019-05-13T03:50:08.103Z,68.80
2019-05-13T03:53:32.536Z,69.00
2019-05-13T03:56:37.439Z,69.10
2019-05-13T03:59:43.669Z,69.30
2019-05-13T04:02:47.851Z,69.50
2019-05-13T04:05:53.054Z,68.70
2019-05-13T04:09:20.096Z,69.40
2019-05-13T04:12:03.771Z,69.30
2019-05-13T04:15:08.075Z,69.10
2019-05-13T04:18:12.720Z,69.00
2019-05-13T04:21:17.104Z,69.10
2019-05-13T04:24:22.944Z,69.40
2019-05-13T04:27:27.472Z,69.20
2019-05-13T04:30:33.028Z,69.10
2019-05-13T04:33:37.572Z,69.20
2019-05-13T04:36:43.072Z,69.10
2019-05-13T04:39:52.651Z,69.30
2019-05-13T04:42:54.093Z,69.40
2019-05-13T04:45:58.455Z,69.00
2019-05-13T04:49:02.721Z,69.00
2019-05-13T04:52:06.987Z,68.70
2019-05-13T04:55:13.158Z,68.40
2019-05-13T04:58:17.608Z,68.50
2019-05-13T05:02:04.858Z,68.20
2019-05-13T05:05:22.724Z,68.90
2019-05-13T05:08:52.548Z,68.30
2019-05-13T05:12:37.901Z,69.00
2019-05-13T05:16:22.517Z,68.10
2019-05-13T05:20:07.002Z,67.10
2019-05-13T05:23:42.131Z,68.10
2019-05-13T05:27:16.309Z,68.40
2019-05-13T05:30:44.152Z,67.50
2019-05-13T05:34:13.015Z,67.40
2019-05-13T05:38:05.285Z,66.80
2019-05-13T05:41:12.792Z,67.80
2019-05-13T05:44:17.825Z,66.80
2019-05-13T05:47:24.040Z,66.90
2019-05-13T05:50:31.795Z,66.60
2019-05-13T05:53:35.810Z,66.70
2019-05-13T05:56:41.564Z,66.50
2019-05-13T05:59:57.716Z,66.70
2019-05-13T06:03:04.085Z,66.30
2019-05-13T06:06:09.190Z,66.20
2019-05-13T06:09:13.614Z,65.60
2019-05-13T06:12:18.364Z,65.90
2019-05-13T06:15:22.684Z,65.80
2019-05-13T06:18:26.905Z,66.10
2019-05-13T06:21:32.123Z,66.70
2019-05-13T06:24:36.582Z,65.70
2019-05-13T06:27:42.248Z,65.30
2019-05-13T06:30:46.629Z,65.10
2019-05-13T06:33:51.417Z,65.50
2019-05-13T06:36:56.144Z,64.90
2019-05-13T06:40:02.015Z,64.90
2019-05-13T06:43:06.332Z,65.20
2019-05-13T06:46:12.391Z,64.20
2019-05-13T06:49:16.684Z,64.60
2019-05-13T06:52:21.356Z,64.60
2019-05-13T06:55:25.837Z,63.80
2019-05-13T06:58:32.346Z,63.40
2019-05-13T07:01:36.237Z,64.00
2019-05-13T07:04:41.552Z,62.70
2019-05-13T07:07:45.941Z,62.00
2019-05-13T07:10:51.510Z,64.10
2019-05-13T07:13:56.002Z,62.30
2019-05-13T07:17:01.907Z,62.10
2019-05-13T07:20:06.768Z,62.30
2019-05-13T07:23:12.133Z,62.70
2019-05-13T07:26:16.769Z,62.10
2019-05-13T07:29:24.049Z,60.40
2019-05-13T07:32:27.436Z,61.50
2019-05-13T07:35:37.487Z,60.20
2019-05-13T07:38:37.936Z,59.90
2019-05-13T07:41:43.123Z,60.00
2019-05-13T07:44:47.695Z,59.10
2019-05-13T07:47:52.216Z,59.50
2019-05-13T07:51:00.684Z,58.80
2019-05-13T07:54:02.537Z,58.80
2019-05-13T07:57:06.797Z,59.00
2019-05-13T08:00:12.473Z,59.20
2019-05-13T08:03:17.010Z,58.00
2019-05-13T08:06:22.160Z,57.30
2019-05-13T08:09:26.728Z,56.70
2019-05-13T08:12:31.922Z,55.40
2019-05-13T08:15:36.513Z,56.60
2019-05-13T08:18:43.625Z,55.30
2019-05-13T08:21:46.956Z,57.20
2019-05-13T08:24:54.141Z,56.40
2019-05-13T08:27:57.205Z,56.90
2019-05-13T08:31:02.096Z,56.50
2019-05-13T08:34:06.714Z,56.10
2019-05-13T08:37:11.473Z,55.60
2019-05-13T08:40:19.956Z,54.40
2019-05-13T08:43:22.704Z,55.70
2019-05-13T08:46:27.170Z,53.30
2019-05-13T08:49:32.480Z,54.00
2019-05-13T08:52:37.131Z,53.20
2019-05-13T08:55:42.777Z,51.50
2019-05-13T08:58:47.474Z,51.00
2019-05-13T09:01:52.565Z,49.60
2019-05-13T09:04:57.539Z,50.20
2019-05-13T09:08:03.704Z,50.30
2019-05-13T09:11:08.610Z,51.30
2019-05-13T09:14:12.989Z,48.40
2019-05-13T09:17:17.251Z,49.90
2019-05-13T09:20:22.089Z,50.00
2019-05-13T09:23:26.529Z,50.60
2019-05-13T09:26:31.615Z,49.10
2019-05-13T09:29:36.512Z,48.50
2019-05-13T09:32:42.527Z,46.20
2019-05-13T09:35:50.011Z,47.30
2019-05-13T09:38:52.846Z,47.10
2019-05-13T09:41:57.054Z,49.60
2019-05-13T09:45:02.162Z,49.20
2019-05-13T09:48:06.822Z,48.40
2019-05-13T09:51:12.400Z,49.10
2019-05-13T09:54:16.826Z,48.60
2019-05-13T09:57:22.040Z,50.10
2019-05-13T10:00:26.509Z,49.40
2019-05-13T10:03:32.992Z,49.50
2019-05-13T10:06:36.948Z,49.50
2019-05-13T10:09:42.983Z,51.30
2019-05-13T10:13:07.373Z,50.30
2019-05-13T10:15:53.963Z,50.00
2019-05-13T10:18:58.164Z,48.80
2019-05-13T10:22:02.504Z,47.90
2019-05-13T10:25:08.328Z,47.40
2019-05-13T10:28:13.422Z,47.30
2019-05-13T10:31:17.701Z,47.00
2019-05-13T10:34:22.680Z,48.50
2019-05-13T10:37:27.435Z,48.20
2019-05-13T10:40:32.716Z,44.50
2019-05-13T10:43:41.478Z,44.20
2019-05-13T10:46:43.221Z,44.20
2019-05-13T10:49:47.501Z,44.50
2019-05-13T10:52:52.334Z,46.40
2019-05-13T10:55:57.150Z,46.20
2019-05-13T10:59:02.947Z,45.60
2019-05-13T11:02:07.654Z,43.50
2019-05-13T11:05:12.530Z,42.60
2019-05-13T11:08:17.923Z,42.40
2019-05-13T11:11:22.259Z,42.00
2019-05-13T11:14:26.616Z,40.40
2019-05-13T11:17:32.954Z,41.50
2019-05-13T11:20:37.467Z,40.80
2019-05-13T11:23:41.951Z,40.90
2019-05-13T11:26:46.142Z,42.00
2019-05-13T11:29:52.284Z,42.40
2019-05-13T11:32:56.804Z,39.40
2019-05-13T11:36:03.314Z,39.50
2019-05-13T11:39:12.700Z,41.30
2019-05-13T11:42:15.379Z,41.00
2019-05-13T11:45:22.372Z,40.80
2019-05-13T11:48:25.915Z,39.80
2019-05-13T11:51:32.006Z,40.30
2019-05-13T11:54:36.290Z,41.40
2019-05-13T11:57:44.136Z,41.40
2019-05-13T12:00:55.419Z,41.60
2019-05-13T12:04:02.450Z,42.30
2019-05-13T12:07:05.749Z,41.00
2019-05-13T12:10:12.465Z,40.30
2019-05-13T12:13:16.751Z,39.30
2019-05-13T12:16:22.711Z,41.00
2019-05-13T12:19:27.411Z,40.60
2019-05-13T12:22:31.647Z,39.50
2019-05-13T12:25:36.228Z,40.00
2019-05-13T12:28:42.119Z,39.00
2019-05-13T12:31:46.937Z,38.50
2019-05-13T12:37:57.434Z,39.70
2019-05-13T12:41:05.078Z,38.30
2019-05-13T12:44:07.707Z,38.60
2019-05-13T12:47:12.276Z,40.10
2019-05-13T12:50:17.407Z,40.20
2019-05-13T12:53:22.304Z,40.30
2019-05-13T12:56:26.880Z,40.50
2019-05-13T12:59:32.099Z,38.60
2019-05-13T13:02:36.584Z,39.50
2019-05-13T13:05:43.108Z,38.80
2019-05-13T13:08:49.322Z,39.90
2019-05-13T13:11:54.267Z,39.60
2019-05-13T13:14:59.058Z,39.00
2019-05-13T13:18:03.802Z,37.80
2019-05-13T13:21:08.532Z,37.80
2019-05-13T13:24:13.115Z,39.70
2019-05-13T13:27:26.283Z,41.90
2019-05-13T13:30:23.438Z,40.70
2019-05-13T13:33:27.986Z,39.80
2019-05-13T13:36:33.597Z,39.00
2019-05-13T13:39:38.173Z,39.60
2019-05-13T13:46:11.769Z,40.40
2019-05-13T13:48:55.695Z,39.90
2019-05-13T13:52:00.474Z,41.30
2019-05-13T13:55:08.800Z,40.60
2019-05-13T13:58:14.144Z,37.60
2019-05-13T14:01:19.939Z,38.80
2019-05-13T14:04:24.039Z,38.40
2019-05-13T14:07:08.128Z,40.50
2019-05-13T14:07:09.128Z,38.60
2019-05-13T14:07:35.880Z,38.20
2019-05-13T14:10:34.659Z,37.70
2019-05-13T14:13:38.996Z,39.70
2019-05-13T14:16:46.505Z,40.90
2019-05-13T14:19:49.277Z,38.90
2019-05-13T14:22:57.844Z,40.90
2019-05-13T14:26:00.018Z,38.30
2019-05-13T14:29:04.390Z,38.40
2019-05-13T14:32:08.613Z,39.50
2019-05-13T14:35:14.477Z,38.20
2019-05-13T14:38:18.906Z,39.50
2019-05-13T14:41:23.543Z,39.90
2019-05-13T14:44:27.925Z,38.20
2019-05-13T14:47:32.273Z,38.50
2019-05-13T14:50:36.842Z,39.50
2019-05-13T14:53:41.721Z,38.20
2019-05-13T14:56:46.110Z,37.50
2019-05-13T14:59:51.408Z,36.70
2019-05-13T15:02:55.927Z,37.10
2019-05-13T15:06:01.550Z,39.30
2019-05-13T15:09:07.657Z,37.30
2019-05-13T15:12:12.063Z,37.70
2019-05-13T15:15:16.415Z,36.80
2019-05-13T15:18:22.273Z,37.00
2019-05-13T15:21:26.726Z,37.10
2019-05-13T15:24:32.319Z,37.60
2019-05-13T15:27:36.765Z,38.00
2019-05-13T15:30:42.105Z,39.30
2019-05-13T15:33:47.011Z,39.00
2019-05-13T15:36:51.563Z,38.50
2019-05-13T15:39:56.210Z,38.20
2019-05-13T15:43:02.433Z,38.20
2019-05-13T15:46:06.601Z,37.30
2019-05-13T15:49:12.436Z,38.20
2019-05-13T15:52:17.020Z,39.40
2019-05-13T15:55:21.539Z,37.90
2019-05-13T15:59:09.004Z,39.60
2019-05-13T16:01:31.851Z,38.80
2019-05-13T16:04:49.151Z,39.60
2019-05-13T16:07:42.127Z,39.30
2019-05-13T16:10:46.545Z,38.50
2019-05-13T16:13:51.822Z,38.00
2019-05-13T16:16:56.507Z,38.50
2019-05-13T16:20:01.929Z,38.90
2019-05-13T16:23:06.481Z,39.10
2019-05-13T16:26:11.631Z,39.60
2019-05-13T16:29:16.765Z,38.80
2019-05-13T16:32:22.745Z,39.20
2019-05-13T16:35:27.313Z,39.10
2019-05-13T16:38:32.885Z,39.20
2019-05-13T16:41:37.397Z,38.30
2019-05-13T16:44:43.034Z,39.00
2019-05-13T16:47:58.027Z,38.10
2019-05-13T16:50:53.807Z,37.40
2019-05-13T16:53:58.186Z,38.30
2019-05-13T16:57:02.658Z,38.20
2019-05-13T17:00:07.700Z,38.40
2019-05-13T17:03:12.114Z,38.90
2019-05-13T17:06:16.443Z,39.70
2019-05-13T17:09:20.835Z,39.00
2019-05-13T17:12:25.138Z,38.00
2019-05-13T17:15:31.226Z,37.30
2019-05-13T17:18:35.697Z,37.40
2019-05-13T17:21:41.100Z,36.90
2019-05-13T17:24:45.497Z,38.00
2019-05-13T17:27:51.484Z,37.40
2019-05-13T17:30:55.918Z,37.20
2019-05-13T17:34:01.496Z,37.00
2019-05-13T17:37:06.015Z,37.00
2019-05-13T17:40:11.796Z,36.80
2019-05-13T17:43:16.511Z,38.80
2019-05-13T17:46:21.877Z,37.60
2019-05-13T17:49:26.424Z,37.10
2019-05-13T17:52:30.756Z,36.60
2019-05-13T17:55:35.012Z,37.30
2019-05-13T17:58:39.270Z,36.60
2019-05-13T18:01:43.633Z,37.40
2019-05-13T18:04:47.943Z,36.80
2019-05-13T18:07:52.330Z,36.50
2019-05-13T18:10:56.695Z,37.80
2019-05-13T18:14:01.352Z,37.40
2019-05-13T18:17:05.857Z,37.10
2019-05-13T18:20:10.440Z,37.50
2019-05-13T18:23:14.896Z,36.80
2019-05-13T18:26:21.459Z,37.90
2019-05-13T18:29:25.322Z,37.80
2019-05-13T18:32:31.779Z,37.50
2019-05-13T18:35:35.914Z,37.70
2019-05-13T18:38:41.864Z,38.90
2019-05-13T18:41:46.420Z,38.40
2019-05-13T18:44:51.358Z,38.60
2019-05-13T18:47:55.990Z,39.00
2019-05-13T18:51:01.363Z,39.30
2019-05-13T18:54:06.044Z,39.20
2019-05-13T18:57:12.182Z,40.40
2019-05-13T19:00:16.556Z,40.80
2019-05-13T19:03:21.841Z,42.30
2019-05-13T19:06:26.383Z,40.50
2019-05-13T19:09:31.114Z,41.60
2019-05-13T19:12:35.605Z,41.90
2019-05-13T19:15:41.117Z,40.80
2019-05-13T19:18:45.542Z,42.40
2019-05-13T19:21:51.137Z,42.20
2019-05-13T19:24:55.892Z,41.80
2019-05-13T19:28:02.248Z,42.70
2019-05-13T19:31:06.233Z,41.80
2019-05-13T19:34:12.439Z,42.20
2019-05-13T19:37:16.718Z,43.30
2019-05-13T19:40:22.076Z,44.00
2019-05-13T19:43:31.392Z,43.50
2019-05-13T19:46:35.490Z,44.40
2019-05-13T19:49:44.156Z,45.40
2019-05-13T19:52:45.701Z,44.90
2019-05-13T19:55:51.853Z,44.70
2019-05-13T19:58:56.023Z,44.40
2019-05-13T20:02:01.469Z,44.10
2019-05-13T20:05:06.096Z,45.60
2019-05-13T20:08:10.396Z,45.70
2019-05-13T20:11:14.681Z,45.80
2019-05-13T20:14:18.940Z,44.70
2019-05-13T20:17:23.213Z,45.60
2019-05-13T20:20:27.455Z,45.50
2019-05-13T20:23:32.148Z,45.90
2019-05-13T20:26:36.633Z,45.60
2019-05-13T20:29:41.735Z,46.90
2019-05-13T20:32:46.188Z,46.30
2019-05-13T20:35:50.533Z,46.70
2019-05-13T20:38:54.759Z,46.90
2019-05-13T20:42:01.389Z,46.70
2019-05-13T20:45:05.264Z,46.70
2019-05-13T20:48:11.786Z,47.60
2019-05-13T20:51:15.527Z,46.90
2019-05-13T20:54:22.011Z,47.40
2019-05-13T20:57:26.303Z,48.60
2019-05-13T21:00:31.425Z,49.80
2019-05-13T21:03:35.994Z,48.00
2019-05-13T21:06:42.254Z,48.40
2019-05-13T21:09:46.255Z,49.50
2019-05-13T21:12:51.388Z,50.60
2019-05-13T21:15:56.183Z,51.00
2019-05-13T21:19:01.873Z,50.90
2019-05-13T21:22:06.779Z,51.20
2019-05-13T21:25:11.107Z,52.90
2019-05-13T21:28:15.434Z,52.80
2019-05-13T21:31:21.515Z,52.70
2019-05-13T21:34:25.639Z,52.70
2019-05-13T21:37:29.953Z,53.30
2019-05-13T21:40:34.194Z,53.70
2019-05-13T21:43:38.368Z,54.30
2019-05-13T21:46:42.588Z,54.10
2019-05-13T21:49:46.891Z,54.10
2019-05-13T21:52:51.544Z,54.60
2019-05-13T21:55:55.872Z,54.80
2019-05-13T21:59:01.510Z,55.30
2019-05-13T22:02:06.335Z,55.30
2019-05-13T22:05:11.759Z,55.30
2019-05-13T22:08:16.232Z,55.70
2019-05-13T22:11:22.189Z,56.20
2019-05-13T22:14:26.453Z,56.70
2019-05-13T22:17:31.712Z,56.50
2019-05-13T22:20:49.472Z,57.00
2019-05-13T22:23:42.087Z,56.20
2019-05-13T22:26:46.396Z,57.00
2019-05-13T22:29:51.677Z,56.60
2019-05-13T22:32:56.150Z,56.60
2019-05-13T22:36:01.690Z,56.50
2019-05-13T22:39:07.217Z,57.30
2019-05-13T22:42:12.490Z,57.50
2019-05-13T22:45:16.916Z,57.50
2019-05-13T22:48:22.288Z,57.20
2019-05-13T22:51:26.658Z,57.20
2019-05-13T22:54:31.812Z,57.30
2019-05-13T22:57:36.279Z,56.30
2019-05-13T23:00:42.345Z,56.70
2019-05-13T23:03:46.422Z,56.70
2019-05-13T23:06:51.991Z,57.30
2019-05-13T23:09:56.331Z,57.40
2019-05-13T23:13:02.144Z,56.60
2019-05-13T23:16:06.513Z,57.30
2019-05-13T23:19:11.200Z,57.10
2019-05-13T23:22:15.559Z,56.90
2019-05-13T23:25:21.470Z,56.90
2019-05-13T23:28:25.825Z,56.60
2019-05-13T23:31:30.165Z,57.30
2019-05-13T23:34:34.527Z,56.40
2019-05-13T23:37:38.801Z,56.60
2019-05-13T23:40:43.117Z,56.80
2019-05-13T23:43:47.458Z,56.40
2019-05-13T23:46:51.770Z,56.70
2019-05-13T23:49:56.143Z,56.30
2019-05-13T23:53:00.434Z,56.60
2019-05-13T23:56:04.861Z,56.40
2019-05-13T23:59:11.187Z,55.90
